Time;durP1;ratioP1;P1;durP2;ratioP2;P2;SDS_P1;SDS_P2;PMS_P1;PMS_P2;Temp;Humidity;BMP_temperature;BMP_pressure;BME280_temperature;BME280_humidity;BME280_pressure;Samples;Min_cycle;Max_cycle;Signal;HPM_P1;HPM_P2
2023/07/04 00:01:17;;;;;;;3.97;1.05;;;15.90;99.90;;;;;;5075574;28;20735;-66
2023/07/04 00:03:44;;;;;;;4.25;0.70;;;15.90;99.90;;;;;;5057217;28;20063;-66
2023/07/04 00:06:13;;;;;;;5.15;0.80;;;15.90;99.90;;;;;;5072824;28;20122;-66
2023/07/04 00:08:39;;;;;;;3.35;1.02;;;15.90;99.90;;;;;;5073791;28;20064;-67
2023/07/04 00:11:08;;;;;;;3.83;0.60;;;15.90;99.90;;;;;;5074252;28;20134;-66
2023/07/04 00:13:35;;;;;;;2.92;0.80;;;15.90;99.90;;;;;;5070189;28;20032;-66
2023/07/04 00:16:05;;;;;;;3.05;0.93;;;15.80;99.90;;;;;;5073288;28;20089;-66
2023/07/04 00:18:31;;;;;;;6.55;0.98;;;15.80;99.90;;;;;;5073049;28;20043;-65
2023/07/04 00:20:58;;;;;;;5.00;1.10;;;15.80;99.90;;;;;;5075247;28;20024;-65
2023/07/04 00:23:29;;;;;;;2.78;0.88;;;15.80;99.90;;;;;;5073751;28;20166;-66
2023/07/04 00:25:56;;;;;;;7.60;1.25;;;15.80;99.90;;;;;;5074459;28;20029;-66
2023/07/04 00:28:22;;;;;;;6.85;1.70;;;15.80;99.90;;;;;;5077200;28;20074;-66
2023/07/04 00:30:52;;;;;;;3.70;1.10;;;15.80;99.90;;;;;;5079156;28;20620;-66
2023/07/04 00:33:22;;;;;;;5.45;1.23;;;15.80;99.90;;;;;;5076804;28;20052;-65
2023/07/04 00:35:48;;;;;;;8.05;1.40;;;15.80;99.90;;;;;;5076537;28;20036;-65
2023/07/04 00:38:15;;;;;;;6.07;1.05;;;15.80;99.90;;;;;;5073892;28;20043;-65
2023/07/04 00:40:40;;;;;;;8.95;1.20;;;15.80;99.90;;;;;;5077965;28;20448;-66
2023/07/04 00:43:12;;;;;;;7.60;1.13;;;15.80;99.90;;;;;;5081291;28;20064;-66
2023/07/04 00:45:42;;;;;;;2.55;1.00;;;15.80;99.90;;;;;;5083267;28;20024;-67
2023/07/04 00:48:11;;;;;;;8.90;1.58;;;15.70;99.90;;;;;;5088406;28;20043;-66
2023/07/04 00:50:43;;;;;;;4.28;1.13;;;15.70;99.90;;;;;;5078552;28;20025;-66
2023/07/04 00:53:11;;;;;;;4.03;1.10;;;15.70;99.90;;;;;;5089892;28;20078;-66
2023/07/04 00:55:40;;;;;;;4.20;1.05;;;15.60;99.90;;;;;;5083112;28;20049;-65
2023/07/04 00:58:06;;;;;;;7.18;1.45;;;15.60;99.90;;;;;;5081478;28;20476;-65
2023/07/04 01:00:32;;;;;;;3.47;0.90;;;15.60;99.90;;;;;;5091575;28;20208;-66
2023/07/04 01:03:11;;;;;;;4.53;1.20;;;15.50;99.90;;;;;;5078589;28;20391;-67
2023/07/04 01:05:44;;;;;;;4.00;1.30;;;15.50;99.90;;;;;;5085616;28;20476;-66
2023/07/04 01:08:18;;;;;;;6.57;1.23;;;15.50;99.90;;;;;;5088970;28;20036;-65
2023/07/04 01:10:45;;;;;;;6.10;1.17;;;15.50;99.90;;;;;;5078562;28;20044;-66
2023/07/04 01:13:33;;;;;;;6.07;1.13;;;15.50;99.90;;;;;;5089193;28;20024;-66
2023/07/04 01:16:01;;;;;;;5.63;1.65;;;15.40;99.90;;;;;;5086757;28;20028;-66
2023/07/04 01:18:27;;;;;;;5.88;1.60;;;15.40;99.90;;;;;;5078369;28;20029;-66
2023/07/04 01:20:53;;;;;;;6.03;1.40;;;15.40;99.90;;;;;;5073220;28;20047;-66
2023/07/04 01:23:44;;;;;;;3.80;1.10;;;15.40;99.90;;;;;;5081499;28;20410;-66
2023/07/04 01:26:31;;;;;;;6.35;1.38;;;15.40;99.90;;;;;;5080461;28;20389;-66
2023/07/04 01:28:59;;;;;;;4.80;1.20;;;15.40;99.90;;;;;;5062642;28;20024;-66
2023/07/04 01:31:27;;;;;;;4.28;0.90;;;15.40;99.90;;;;;;5086998;28;20021;-66
2023/07/04 01:33:53;;;;;;;5.90;1.20;;;15.40;99.90;;;;;;5084860;28;20065;-67
2023/07/04 01:36:22;;;;;;;4.80;1.25;;;15.40;99.90;;;;;;5078752;28;20024;-66
2023/07/04 01:38:48;;;;;;;8.48;1.40;;;15.40;99.90;;;;;;5090815;28;20048;-66
2023/07/04 01:41:15;;;;;;;3.30;1.00;;;15.40;99.90;;;;;;5080191;28;20061;-66
2023/07/04 01:43:42;;;;;;;9.20;1.20;;;15.40;99.90;;;;;;5084632;28;20032;-65
2023/07/04 01:46:07;;;;;;;8.35;1.40;;;15.40;99.90;;;;;;5087687;28;20024;-65
2023/07/04 01:48:33;;;;;;;4.22;1.27;;;15.40;99.90;;;;;;5077403;28;20016;-66
2023/07/04 01:50:59;;;;;;;7.93;1.60;;;15.40;99.90;;;;;;5090076;28;20036;-65
2023/07/04 01:53:24;;;;;;;7.43;1.30;;;15.40;99.90;;;;;;5081734;28;20055;-65
2023/07/04 01:55:50;;;;;;;3.15;1.20;;;15.40;99.90;;;;;;5082906;28;20078;-66
2023/07/04 01:58:15;;;;;;;3.67;1.15;;;15.40;99.90;;;;;;5088459;28;20384;-66
2023/07/04 02:00:41;;;;;;;4.05;1.20;;;15.40;99.90;;;;;;5077025;28;20044;-66
2023/07/04 02:03:07;;;;;;;8.77;1.50;;;15.50;99.90;;;;;;5088448;28;20036;-66
2023/07/04 02:05:33;;;;;;;7.80;1.33;;;15.50;99.90;;;;;;5082175;28;20032;-66
2023/07/04 02:07:58;;;;;;;7.07;1.20;;;15.60;99.90;;;;;;5081407;28;20071;-66
2023/07/04 02:10:24;;;;;;;5.72;1.63;;;15.50;99.90;;;;;;5089745;28;20028;-65
2023/07/04 02:12:50;;;;;;;7.45;1.40;;;15.50;99.90;;;;;;5076909;28;20115;-66
2023/07/04 02:15:16;;;;;;;3.08;1.20;;;15.50;99.90;;;;;;5087497;28;20036;-66
2023/07/04 02:17:42;;;;;;;5.55;1.17;;;15.50;99.90;;;;;;5083606;28;20058;-66
2023/07/04 02:20:08;;;;;;;5.18;1.08;;;15.50;99.90;;;;;;5078596;28;20103;-66
2023/07/04 02:22:34;;;;;;;5.50;1.00;;;15.50;99.90;;;;;;5089628;28;20028;-66
2023/07/04 02:25:00;;;;;;;5.78;1.15;;;15.40;99.90;;;;;;5077187;28;20082;-66
2023/07/04 02:27:25;;;;;;;4.75;0.85;;;15.40;99.90;;;;;;5085380;28;20137;-66
2023/07/04 02:29:51;;;;;;;4.47;1.00;;;15.40;99.90;;;;;;5084658;28;20038;-66
2023/07/04 02:32:17;;;;;;;4.50;1.30;;;15.40;99.90;;;;;;5078116;28;20056;-66
2023/07/04 02:34:42;;;;;;;9.07;1.38;;;15.30;99.90;;;;;;5089625;28;20111;-66
2023/07/04 02:37:08;;;;;;;7.75;1.13;;;15.30;99.90;;;;;;5078840;28;20029;-65
2023/07/04 02:39:34;;;;;;;1.85;0.85;;;15.30;99.90;;;;;;5082539;28;20044;-66
2023/07/04 02:41:59;;;;;;;5.15;0.90;;;15.30;99.90;;;;;;5085326;28;20020;-66
2023/07/04 02:44:25;;;;;;;4.70;0.80;;;15.30;99.90;;;;;;5077093;28;20365;-65
2023/07/04 02:46:51;;;;;;;2.55;0.90;;;15.30;99.90;;;;;;5089208;28;20381;-66
2023/07/04 02:49:16;;;;;;;7.43;1.25;;;15.30;99.90;;;;;;5079354;28;20028;-66
2023/07/04 02:51:42;;;;;;;5.72;1.00;;;15.30;99.90;;;;;;5082598;28;20430;-66
2023/07/04 02:54:08;;;;;;;6.97;1.17;;;15.30;99.90;;;;;;5072719;28;20465;-66
2023/07/04 02:56:33;;;;;;;5.32;1.00;;;15.30;99.90;;;;;;5089919;28;20042;-67
2023/07/04 02:58:59;;;;;;;6.47;1.42;;;15.30;99.90;;;;;;5076718;28;20055;-67
2023/07/04 03:01:25;;;;;;;6.20;1.33;;;15.30;99.90;;;;;;5072396;28;20037;-66
2023/07/04 03:03:50;;;;;;;5.40;1.35;;;15.30;99.90;;;;;;5073032;28;20028;-66
2023/07/04 03:06:16;;;;;;;6.70;1.23;;;15.40;99.90;;;;;;5072015;28;20024;-66
2023/07/04 03:08:44;;;;;;;3.90;0.95;;;15.40;99.90;;;;;;5072080;28;20033;-65
2023/07/04 03:11:10;;;;;;;5.35;1.20;;;15.40;99.90;;;;;;5072569;28;20377;-66
2023/07/04 03:13:36;;;;;;;5.68;1.30;;;15.50;99.90;;;;;;5072201;28;20028;-67
2023/07/04 03:16:01;;;;;;;6.90;1.17;;;15.40;99.90;;;;;;5072145;28;20080;-66
2023/07/04 03:18:27;;;;;;;5.30;1.05;;;15.40;99.90;;;;;;5079662;28;20028;-66
2023/07/04 03:20:53;;;;;;;9.60;1.50;;;15.50;99.90;;;;;;5085943;28;20435;-66
2023/07/04 03:23:19;;;;;;;6.93;1.40;;;15.50;99.90;;;;;;5081216;28;20024;-67
2023/07/04 03:25:44;;;;;;;3.03;1.00;;;15.50;99.90;;;;;;5077101;28;20067;-67
2023/07/04 03:28:10;;;;;;;8.75;1.70;;;15.50;99.90;;;;;;5073094;28;20078;-67
2023/07/04 03:30:35;;;;;;;6.40;1.58;;;15.50;99.90;;;;;;5087996;28;20107;-65
2023/07/04 03:33:01;;;;;;;7.57;1.60;;;15.50;99.90;;;;;;5079428;28;20130;-67
2023/07/04 03:35:27;;;;;;;8.10;1.52;;;15.50;99.90;;;;;;5081375;28;20078;-67
2023/07/04 03:37:52;;;;;;;5.95;1.60;;;15.50;99.90;;;;;;5086299;28;20067;-67
2023/07/04 03:40:18;;;;;;;8.35;1.58;;;15.50;99.90;;;;;;5074773;28;20032;-66
2023/07/04 03:42:44;;;;;;;8.20;1.50;;;15.50;99.90;;;;;;5084083;28;20024;-66
2023/07/04 03:45:11;;;;;;;9.65;1.70;;;15.60;99.90;;;;;;5083239;28;20032;-67
2023/07/04 03:47:36;;;;;;;6.57;1.58;;;15.70;99.90;;;;;;5076165;28;20064;-67
2023/07/04 03:50:02;;;;;;;11.82;1.85;;;15.70;99.90;;;;;;5083850;28;20480;-65
2023/07/04 03:52:28;;;;;;;6.00;1.65;;;15.70;99.90;;;;;;5075321;28;20032;-66
2023/07/04 03:54:54;;;;;;;10.10;1.80;;;15.80;99.90;;;;;;5076284;28;20067;-67
2023/07/04 03:57:20;;;;;;;9.15;1.75;;;15.80;99.90;;;;;;5059920;28;20480;-67
2023/07/04 03:59:45;;;;;;;7.72;2.03;;;15.90;99.90;;;;;;5051689;28;20146;-67
2023/07/04 04:02:11;;;;;;;9.15;1.73;;;15.80;99.90;;;;;;5050423;28;20025;-67
2023/07/04 04:04:39;;;;;;;10.38;2.03;;;15.90;99.90;;;;;;5052186;28;20025;-66
2023/07/04 04:07:07;;;;;;;10.50;2.05;;;15.90;99.90;;;;;;5052025;28;20039;-67
2023/07/04 04:09:34;;;;;;;7.72;1.85;;;15.90;99.90;;;;;;5050487;28;20027;-67
2023/07/04 04:11:59;;;;;;;7.15;1.55;;;15.90;99.90;;;;;;5055343;28;20407;-66
2023/07/04 04:14:25;;;;;;;9.25;1.58;;;15.90;99.90;;;;;;5060747;28;20029;-66
2023/07/04 04:16:50;;;;;;;11.95;1.60;;;15.90;99.90;;;;;;5053492;28;20028;-67
2023/07/04 04:19:16;;;;;;;8.82;1.85;;;15.90;99.90;;;;;;5061698;28;20029;-67
2023/07/04 04:21:41;;;;;;;12.65;2.30;;;15.90;99.90;;;;;;5052111;28;20388;-67
2023/07/04 04:24:07;;;;;;;9.63;2.03;;;16.00;99.90;;;;;;5053271;28;20103;-67
2023/07/04 04:26:38;;;;;;;12.00;1.98;;;16.00;99.90;;;;;;5063247;28;20818;-67
2023/07/04 04:29:05;;;;;;;12.23;2.10;;;16.00;99.90;;;;;;5051872;28;20045;-67
2023/07/04 04:31:31;;;;;;;8.38;2.13;;;16.00;99.90;;;;;;5051824;28;20377;-67
2023/07/04 04:33:57;;;;;;;11.27;2.05;;;16.00;99.90;;;;;;5051956;28;20036;-67
2023/07/04 04:36:23;;;;;;;8.63;1.70;;;16.00;99.90;;;;;;5051983;28;20036;-67
2023/07/04 04:38:49;;;;;;;10.70;2.00;;;16.00;99.90;;;;;;5051965;28;20386;-67
2023/07/04 04:41:15;;;;;;;11.65;2.05;;;16.10;99.90;;;;;;5051308;28;20029;-66
2023/07/04 04:43:40;;;;;;;12.13;1.90;;;16.10;99.90;;;;;;5051650;28;20029;-67
2023/07/04 04:46:06;;;;;;;12.32;1.77;;;16.20;99.90;;;;;;5051650;28;20029;-65
2023/07/04 04:48:35;;;;;;;11.68;2.20;;;16.30;99.90;;;;;;5051646;28;20036;-66
2023/07/04 04:51:10;;;;;;;13.85;2.15;;;16.30;99.90;;;;;;5050455;28;20071;-66
2023/07/04 04:53:37;;;;;;;10.13;2.20;;;16.40;99.90;;;;;;5051913;28;20096;-65
2023/07/04 04:56:04;;;;;;;10.30;2.00;;;16.40;99.90;;;;;;5056946;28;20112;-66
2023/07/04 04:58:29;;;;;;;6.75;1.40;;;16.50;99.90;;;;;;5057404;28;20031;-67
2023/07/04 05:00:55;;;;;;;12.20;2.10;;;16.60;99.90;;;;;;5052153;28;20021;-67
2023/07/04 05:03:21;;;;;;;5.75;1.92;;;16.50;99.90;;;;;;5052250;28;20032;-66
2023/07/04 05:05:46;;;;;;;12.43;2.15;;;16.50;99.90;;;;;;5051418;28;20025;-67
2023/07/04 05:08:12;;;;;;;7.25;1.80;;;16.50;99.90;;;;;;5051294;28;20052;-67
2023/07/04 05:10:37;;;;;;;7.22;1.83;;;16.60;99.90;;;;;;5062932;28;20028;-67
2023/07/04 05:13:03;;;;;;;12.30;2.08;;;16.70;99.90;;;;;;5059604;28;20389;-67
2023/07/04 05:15:29;;;;;;;9.48;2.60;;;16.80;99.90;;;;;;5055301;28;20028;-68
2023/07/04 05:17:54;;;;;;;10.30;1.85;;;17.00;99.90;;;;;;5055292;28;20354;-66
2023/07/04 05:20:23;;;;;;;13.48;2.30;;;17.20;99.90;;;;;;5055716;28;20338;-66
2023/07/04 05:22:53;;;;;;;9.20;2.70;;;17.30;99.90;;;;;;5055455;28;20040;-67
2023/07/04 05:25:19;;;;;;;11.77;2.78;;;17.40;99.90;;;;;;5059902;28;20492;-67
2023/07/04 05:27:45;;;;;;;14.45;2.47;;;17.50;99.90;;;;;;5061534;28;20044;-66
2023/07/04 05:30:11;;;;;;;9.10;2.20;;;17.60;99.90;;;;;;5054765;28;20051;-67
2023/07/04 05:32:37;;;;;;;14.10;2.53;;;17.90;99.90;;;;;;5055073;28;20471;-67
2023/07/04 05:35:03;;;;;;;9.07;2.00;;;18.20;99.90;;;;;;5054902;28;20218;-67
2023/07/04 05:37:30;;;;;;;12.60;1.90;;;18.30;99.90;;;;;;5054786;28;20044;-67
2023/07/04 05:39:57;;;;;;;9.85;1.80;;;18.40;99.90;;;;;;5054561;28;20036;-67
2023/07/04 05:42:24;;;;;;;11.05;2.30;;;18.50;99.90;;;;;;5054387;28;20035;-66
2023/07/04 05:44:50;;;;;;;11.27;2.58;;;18.80;99.90;;;;;;5054419;28;20040;-67
2023/07/04 05:47:15;;;;;;;11.35;2.65;;;19.10;99.90;;;;;;5054327;28;20120;-66
2023/07/04 05:49:41;;;;;;;11.30;2.35;;;19.20;99.90;;;;;;5054497;28;20373;-67
2023/07/04 05:52:06;;;;;;;11.52;2.10;;;19.30;99.90;;;;;;5055240;28;20059;-66
2023/07/04 05:54:32;;;;;;;8.93;2.30;;;19.60;99.90;;;;;;5054380;28;20112;-67
2023/07/04 05:56:58;;;;;;;8.77;2.00;;;19.80;99.90;;;;;;5058765;28;20453;-67
2023/07/04 05:59:23;;;;;;;10.10;2.00;;;19.70;99.90;;;;;;5074560;28;20469;-67
2023/07/04 06:01:50;;;;;;;11.15;2.10;;;19.60;99.90;;;;;;5074398;28;20524;-67
2023/07/04 06:04:16;;;;;;;10.25;2.08;;;19.40;99.90;;;;;;5074189;28;20479;-66
2023/07/04 06:06:48;;;;;;;13.40;2.25;;;19.30;99.90;;;;;;5074314;28;20506;-67
2023/07/04 06:09:15;;;;;;;11.23;2.47;;;19.20;99.90;;;;;;5070590;28;20051;-66
2023/07/04 06:11:45;;;;;;;12.10;2.38;;;19.40;99.90;;;;;;5067243;28;20132;-67
2023/07/04 06:14:14;;;;;;;11.77;2.53;;;19.90;99.90;;;;;;5054186;28;20536;-67
2023/07/04 06:16:40;;;;;;;8.95;2.28;;;20.20;99.90;;;;;;5053811;28;20044;-67
2023/07/04 06:19:05;;;;;;;16.83;3.53;;;20.20;99.90;;;;;;5052827;28;20029;-67
2023/07/04 06:21:31;;;;;;;9.18;2.42;;;20.40;99.90;;;;;;5052687;28;20120;-67
2023/07/04 06:23:58;;;;;;;12.82;2.10;;;20.60;99.90;;;;;;5053801;28;20059;-67
2023/07/04 06:26:27;;;;;;;8.15;2.05;;;20.60;99.90;;;;;;5053793;28;20140;-66
2023/07/04 06:28:54;;;;;;;10.30;2.30;;;20.50;99.90;;;;;;5054023;28;20169;-66
2023/07/04 06:31:20;;;;;;;13.18;2.45;;;20.40;99.90;;;;;;5053534;28;20467;-67
2023/07/04 06:33:45;;;;;;;9.68;2.50;;;20.80;99.90;;;;;;5053429;28;20036;-67
2023/07/04 06:36:14;;;;;;;11.88;2.38;;;21.20;99.50;;;;;;5052946;28;20033;-66
2023/07/04 06:38:40;;;;;;;9.60;1.60;;;21.10;99.30;;;;;;5059266;28;20055;-66
2023/07/04 06:41:11;;;;;;;14.30;2.33;;;21.00;99.20;;;;;;5063137;28;20041;-66
2023/07/04 06:43:39;;;;;;;10.77;2.28;;;20.90;99.60;;;;;;5053533;28;20021;-67
2023/07/04 06:46:05;;;;;;;8.80;1.95;;;21.20;99.30;;;;;;5053567;28;20025;-66
2023/07/04 06:48:31;;;;;;;10.73;2.10;;;21.50;98.80;;;;;;5053633;28;20477;-67
2023/07/04 06:51:07;;;;;;;14.98;2.22;;;21.50;98.90;;;;;;5053567;28;20037;-67
2023/07/04 06:53:34;;;;;;;12.40;2.40;;;21.40;98.50;;;;;;5053682;28;20365;-66
2023/07/04 06:56:04;;;;;;;13.77;2.60;;;21.20;99.00;;;;;;5053414;28;20041;-67
2023/07/04 06:58:29;;;;;;;12.43;2.80;;;21.20;99.00;;;;;;5053150;28;20091;-66
2023/07/04 07:00:55;;;;;;;9.60;2.20;;;21.30;99.00;;;;;;5053040;28;20052;-67
2023/07/04 07:03:21;;;;;;;14.25;2.50;;;21.40;98.30;;;;;;5053058;28;20066;-67
2023/07/04 07:05:47;;;;;;;10.95;2.15;;;21.90;97.90;;;;;;5053359;28;20100;-67
2023/07/04 07:08:14;;;;;;;9.57;2.20;;;22.60;96.90;;;;;;5069090;28;20457;-66
2023/07/04 07:10:49;;;;;;;13.48;2.33;;;23.30;96.00;;;;;;5073076;28;20024;-66
2023/07/04 07:13:15;;;;;;;11.48;2.30;;;24.30;94.80;;;;;;5073109;28;20157;-67
2023/07/04 07:15:40;;;;;;;10.15;1.98;;;25.00;94.10;;;;;;5072722;28;20500;-66
2023/07/04 07:18:06;;;;;;;9.77;2.13;;;25.00;92.80;;;;;;5072357;28;20525;-67
2023/07/04 07:20:31;;;;;;;9.02;1.92;;;24.70;92.60;;;;;;5072737;28;20065;-66
2023/07/04 07:22:57;;;;;;;11.98;2.58;;;25.10;92.50;;;;;;5073087;28;20028;-66
2023/07/04 07:25:22;;;;;;;9.80;1.90;;;25.00;92.70;;;;;;5068176;28;20028;-66
2023/07/04 07:27:48;;;;;;;13.07;2.45;;;24.70;93.20;;;;;;5071181;28;20032;-67
2023/07/04 07:30:14;;;;;;;6.05;1.70;;;24.40;93.50;;;;;;5071353;28;20081;-67
2023/07/04 07:32:39;;;;;;;10.13;2.75;;;24.10;93.20;;;;;;5070243;28;20472;-66
2023/07/04 07:35:05;;;;;;;12.80;2.35;;;23.80;93.50;;;;;;5071489;28;20027;-67
2023/07/04 07:37:31;;;;;;;13.80;2.53;;;23.70;93.90;;;;;;5071111;28;20020;-66
2023/07/04 07:39:56;;;;;;;13.27;2.58;;;23.50;94.40;;;;;;5071556;28;20031;-67
2023/07/04 07:42:22;;;;;;;11.88;2.38;;;23.50;94.40;;;;;;5071317;28;20040;-68
2023/07/04 07:44:48;;;;;;;11.82;2.13;;;23.70;94.30;;;;;;5070138;28;20029;-67
2023/07/04 07:47:13;;;;;;;8.73;2.53;;;24.10;93.30;;;;;;5071332;28;20050;-65
2023/07/04 07:49:39;;;;;;;11.65;3.33;;;24.00;93.00;;;;;;5072258;28;20051;-67
2023/07/04 07:52:05;;;;;;;14.07;2.45;;;23.80;93.30;;;;;;5072217;28;20047;-66
2023/07/04 07:54:30;;;;;;;11.73;2.88;;;23.50;93.70;;;;;;5072096;28;20036;-67
2023/07/04 07:56:56;;;;;;;10.75;2.30;;;23.30;93.90;;;;;;5065176;28;20079;-67
2023/07/04 07:59:22;;;;;;;10.75;2.28;;;23.10;93.90;;;;;;5071960;28;20372;-67
2023/07/04 08:01:47;;;;;;;11.55;1.90;;;22.90;94.60;;;;;;5071758;28;20059;-68
2023/07/04 08:04:14;;;;;;;12.98;2.15;;;22.80;94.60;;;;;;5071292;28;20031;-67
2023/07/04 08:06:42;;;;;;;7.65;2.00;;;23.00;93.60;;;;;;5071362;28;20029;-67
2023/07/04 08:09:10;;;;;;;12.10;3.00;;;23.50;93.20;;;;;;5069175;28;20075;-67
2023/07/04 08:11:41;;;;;;;12.43;2.45;;;23.90;92.60;;;;;;5059989;28;20120;-67
2023/07/04 08:14:07;;;;;;;10.98;2.45;;;23.90;92.60;;;;;;5071520;28;20097;-67
2023/07/04 08:16:53;;;;;;;13.80;2.58;;;23.70;92.80;;;;;;5072037;28;20469;-68
2023/07/04 08:19:21;;;;;;;13.45;3.13;;;23.80;93.10;;;;;;5072324;28;20090;-67
2023/07/04 08:21:47;;;;;;;13.35;2.78;;;23.80;93.10;;;;;;5072052;28;20189;-68
2023/07/04 08:24:14;;;;;;;12.90;2.92;;;23.60;93.50;;;;;;5072192;28;20115;-68
2023/07/04 08:26:42;;;;;;;12.20;2.22;;;23.30;94.10;;;;;;5070718;28;20434;-67
2023/07/04 08:29:08;;;;;;;13.00;2.42;;;23.00;94.40;;;;;;5072122;28;20024;-66
2023/07/04 08:31:34;;;;;;;11.00;2.28;;;22.70;94.80;;;;;;5068882;28;20503;-67
2023/07/04 08:34:00;;;;;;;12.50;2.80;;;22.50;95.30;;;;;;5063389;28;20024;-67
2023/07/04 08:36:25;;;;;;;12.02;2.70;;;22.30;95.30;;;;;;5071928;28;20453;-66
2023/07/04 08:38:51;;;;;;;14.32;2.70;;;22.30;95.60;;;;;;5071419;28;20054;-68
2023/07/04 08:41:36;;;;;;;15.10;2.45;;;22.30;95.80;;;;;;5072313;28;20074;-67
2023/07/04 08:44:12;;;;;;;10.52;2.40;;;22.50;95.80;;;;;;5073027;28;20021;-67
2023/07/04 08:46:43;;;;;;;13.82;2.35;;;22.60;95.50;;;;;;5075609;28;20089;-68
2023/07/04 08:49:35;;;;;;;15.55;2.70;;;22.60;95.30;;;;;;5075323;28;20033;-67
2023/07/04 08:52:24;;;;;;;15.85;2.50;;;22.40;95.70;;;;;;5055735;28;20040;-67
2023/07/04 08:54:51;;;;;;;16.25;3.10;;;22.50;96.00;;;;;;5065903;28;20113;-67
2023/07/04 08:57:34;;;;;;;15.48;2.75;;;22.80;95.50;;;;;;5075618;28;20036;-67
2023/07/04 09:00:08;;;;;;;19.52;2.97;;;23.10;95.10;;;;;;5075327;28;20029;-66
2023/07/04 09:03:12;;;;;;;16.08;4.05;;;23.00;95.30;;;;;;5074164;28;20033;-67
2023/07/04 09:05:56;;;;;;;16.83;3.17;;;22.60;95.30;;;;;;5075587;28;20090;-67
2023/07/04 09:08:48;;;;;;;15.98;2.92;;;22.40;95.30;;;;;;5075328;28;20037;-67
2023/07/04 09:11:15;;;;;;;;;;;22.20;95.80;;;;;;5075575;28;20047;-67
2023/07/04 09:13:49;;;;;;;16.30;3.00;;;22.10;96.30;;;;;;5075375;28;20043;-66
2023/07/04 09:16:29;;;;;;;17.20;4.20;;;22.10;96.60;;;;;;5075122;28;20107;-68
2023/07/04 09:19:05;;;;;;;17.20;2.55;;;22.00;96.10;;;;;;5075305;28;20039;-68
2023/07/04 09:21:32;;;;;;;12.90;3.08;;;22.40;95.50;;;;;;5075319;28;20028;-68
2023/07/04 09:23:59;;;;;;;13.75;2.55;;;23.10;94.60;;;;;;5073348;28;20039;-68
2023/07/04 09:26:42;;;;;;;11.48;2.67;;;23.50;94.20;;;;;;5063266;28;20033;-67
2023/07/04 09:29:09;;;;;;;13.63;2.45;;;23.60;93.90;;;;;;5058304;28;20025;-67
2023/07/04 09:31:38;;;;;;;18.92;3.05;;;23.40;94.30;;;;;;5054705;28;20036;-67
2023/07/04 09:34:19;;;;;;;12.73;2.25;;;23.40;94.50;;;;;;5054947;28;20472;-67
2023/07/04 09:36:45;;;;;;;11.80;2.70;;;23.80;94.40;;;;;;5061746;28;20392;-67
2023/07/04 09:39:11;;;;;;;14.90;2.70;;;24.10;94.00;;;;;;5074724;28;20051;-68
2023/07/04 09:41:39;;;;;;;14.23;2.88;;;24.40;93.70;;;;;;5074380;28;20024;-67
2023/07/04 09:44:12;;;;;;;13.88;2.53;;;24.50;93.70;;;;;;5074599;28;20082;-67
2023/07/04 09:46:38;;;;;;;15.73;2.88;;;24.70;93.30;;;;;;5073996;28;20119;-66
2023/07/04 09:49:27;;;;;;;12.25;2.65;;;25.00;93.60;;;;;;5074551;28;20028;-68
2023/07/04 09:51:56;;;;;;;12.73;2.85;;;26.20;92.40;;;;;;5074297;28;20032;-67
2023/07/04 09:54:22;;;;;;;12.23;2.22;;;26.70;90.60;;;;;;5070887;28;20044;-67
2023/07/04 09:56:47;;;;;;;11.18;2.90;;;26.50;90.60;;;;;;5066669;28;20149;-67
2023/07/04 09:59:16;;;;;;;12.25;2.65;;;26.30;90.60;;;;;;5073146;28;20024;-67
2023/07/04 10:01:53;;;;;;;11.63;2.38;;;25.70;91.20;;;;;;5072420;28;20442;-67
2023/07/04 10:04:40;;;;;;;13.75;3.42;;;25.30;91.50;;;;;;5074101;28;20031;-67
2023/07/04 10:07:13;;;;;;;17.17;2.88;;;25.00;91.40;;;;;;5074056;28;20127;-67
2023/07/04 10:09:50;;;;;;;13.07;2.67;;;24.90;91.60;;;;;;5074186;28;20029;-67
2023/07/04 10:12:17;;;;;;;14.52;2.42;;;24.70;91.90;;;;;;5074322;28;20063;-68
2023/07/04 10:14:50;;;;;;;12.45;3.15;;;24.60;92.10;;;;;;5072843;28;20036;-69
2023/07/04 10:17:21;;;;;;;13.38;2.20;;;24.40;92.40;;;;;;5074234;28;20029;-69
2023/07/04 10:19:54;;;;;;;15.43;2.65;;;24.20;92.80;;;;;;5072139;28;20052;-68
2023/07/04 10:22:34;;;;;;;14.85;3.10;;;23.90;93.30;;;;;;5063116;28;20438;-67
2023/07/04 10:25:01;;;;;;;13.85;3.28;;;23.80;93.60;;;;;;5054375;28;20037;-67
2023/07/04 10:27:34;;;;;;;17.73;3.92;;;23.60;93.90;;;;;;5053664;28;20508;-67
2023/07/04 10:30:06;;;;;;;11.13;2.53;;;23.70;93.80;;;;;;5054000;28;20033;-67
2023/07/04 10:32:40;;;;;;;10.82;2.20;;;23.90;93.70;;;;;;5053826;28;20029;-68
2023/07/04 10:35:10;;;;;;;8.68;1.80;;;24.50;93.30;;;;;;5053705;28;20036;-67
2023/07/04 10:37:37;;;;;;;12.93;2.25;;;25.20;92.60;;;;;;5053470;28;20400;-67
2023/07/04 10:40:08;;;;;;;9.15;2.22;;;25.70;91.80;;;;;;5053718;28;20060;-68
2023/07/04 10:42:43;;;;;;;10.77;2.17;;;26.10;90.40;;;;;;5071251;28;20063;-68
2023/07/04 10:45:12;;;;;;;15.95;2.38;;;26.20;90.20;;;;;;5073603;28;20064;-68
2023/07/04 10:47:39;;;;;;;9.88;2.42;;;26.10;90.50;;;;;;5071742;28;20472;-67
2023/07/04 10:50:29;;;;;;;10.18;2.40;;;26.20;90.20;;;;;;5071656;28;20028;-69
2023/07/04 10:52:55;;;;;;;8.82;2.00;;;26.50;90.40;;;;;;5073503;28;20066;-68
2023/07/04 10:55:22;;;;;;;6.25;2.35;;;26.50;90.60;;;;;;5073342;28;20021;-67
2023/07/04 10:57:59;;;;;;;10.57;2.38;;;26.30;90.60;;;;;;5073179;28;20043;-67
2023/07/04 11:00:30;;;;;;;10.60;2.40;;;26.00;90.80;;;;;;5073330;28;20052;-67
2023/07/04 11:03:01;;;;;;;14.73;2.80;;;25.70;90.90;;;;;;5073071;28;20475;-68
2023/07/04 11:05:37;;;;;;;8.30;2.05;;;25.50;91.10;;;;;;5073175;28;20052;-68
2023/07/04 11:08:08;;;;;;;15.30;2.70;;;25.50;90.90;;;;;;5072717;28;20040;-68
2023/07/04 11:10:40;;;;;;;8.50;2.50;;;25.50;91.00;;;;;;5065068;28;20029;-68
2023/07/04 11:13:07;;;;;;;12.07;2.40;;;25.50;91.00;;;;;;5068317;28;20097;-68
2023/07/04 11:15:38;;;;;;;12.90;2.63;;;25.30;91.00;;;;;;5072850;28;20033;-68
2023/07/04 11:18:05;;;;;;;8.53;2.57;;;25.20;91.50;;;;;;5073082;28;20206;-68
2023/07/04 11:20:40;;;;;;;10.30;2.30;;;25.60;91.00;;;;;;5072691;28;20051;-68
2023/07/04 11:23:14;;;;;;;10.68;2.70;;;25.70;90.80;;;;;;5069460;28;20023;-68
2023/07/04 11:25:46;;;;;;;13.20;3.30;;;25.20;91.30;;;;;;5066724;28;20426;-67
2023/07/04 11:28:25;;;;;;;11.60;2.72;;;25.00;91.40;;;;;;5070923;28;20082;-68
2023/07/04 11:30:52;;;;;;;12.55;2.65;;;24.80;91.60;;;;;;5072730;28;20032;-67
2023/07/04 11:34:00;;;;;;;13.65;3.10;;;24.60;92.10;;;;;;5072522;28;20111;-68
2023/07/04 11:36:53;;;;;;;11.77;2.45;;;24.60;92.20;;;;;;5072735;28;20032;-67
2023/07/04 11:39:28;;;;;;;10.75;2.50;;;24.90;91.70;;;;;;5070131;28;20128;-67
2023/07/04 11:41:55;;;;;;;11.73;2.72;;;24.60;92.20;;;;;;5066055;28;20479;-68
2023/07/04 11:44:30;;;;;;;11.43;2.45;;;24.70;92.20;;;;;;5069654;28;20104;-68
2023/07/04 11:47:05;;;;;;;9.35;2.50;;;25.30;91.40;;;;;;5072197;28;20467;-69
2023/07/04 11:49:33;;;;;;;8.13;2.25;;;25.70;91.20;;;;;;5070040;28;20574;-68
2023/07/04 11:52:19;;;;;;;11.98;2.08;;;25.80;91.30;;;;;;5069304;28;20027;-68
2023/07/04 11:54:45;;;;;;;9.13;2.03;;;25.70;91.00;;;;;;5070307;28;20044;-67
2023/07/04 11:57:10;;;;;;;9.30;2.28;;;25.90;90.00;;;;;;5071802;28;20524;-68
2023/07/04 11:59:39;;;;;;;8.18;1.77;;;25.90;88.70;;;;;;5072056;28;20044;-68
2023/07/04 12:02:12;;;;;;;8.30;1.90;;;26.20;89.30;;;;;;5072427;28;20055;-67
2023/07/04 12:04:38;;;;;;;11.48;2.33;;;26.30;89.50;;;;;;5065297;28;20086;-68
2023/07/04 12:07:35;;;;;;;10.57;2.25;;;26.20;90.00;;;;;;5064848;28;20428;-68
2023/07/04 12:10:00;;;;;;;4.65;1.60;;;26.50;90.00;;;;;;5060868;28;20082;-68
2023/07/04 12:12:28;;;;;;;10.88;2.15;;;26.60;89.70;;;;;;5071768;28;20032;-68
2023/07/04 12:15:10;;;;;;;12.15;2.10;;;26.20;90.40;;;;;;5072435;28;20020;-68
2023/07/04 12:17:42;;;;;;;7.07;1.80;;;26.20;90.10;;;;;;5070390;28;20032;-68
2023/07/04 12:20:11;;;;;;;;;;;25.90;89.00;;;;;;5076149;28;20556;-68
2023/07/04 12:22:43;;;;;;;7.50;1.95;;;25.90;87.90;;;;;;5076399;28;19934;-68
2023/07/04 12:25:26;;;;;;;7.57;1.70;;;26.40;87.30;;;;;;5076382;28;20033;-68
2023/07/04 12:27:55;;;;;;;9.55;1.70;;;26.80;86.70;;;;;;5076217;28;20052;-67
2023/07/04 12:30:21;;;;;;;10.48;2.25;;;27.30;84.90;;;;;;5075954;28;20056;-67
2023/07/04 12:32:53;;;;;;;5.80;1.77;;;27.50;85.80;;;;;;5076019;28;20035;-68
2023/07/04 12:35:30;;;;;;;5.75;1.45;;;27.30;83.20;;;;;;5075984;28;20054;-68
2023/07/04 12:37:57;;;;;;;8.27;1.77;;;27.20;82.70;;;;;;5075808;28;20095;-68
2023/07/04 12:40:28;;;;;;;8.20;1.80;;;26.70;83.70;;;;;;5075579;28;20434;-68
2023/07/04 12:42:56;;;;;;;8.48;1.65;;;26.60;83.60;;;;;;5075825;28;20472;-68
2023/07/04 12:45:24;;;;;;;10.45;1.90;;;26.70;84.60;;;;;;5075892;28;20033;-69
2023/07/04 12:47:53;;;;;;;7.75;1.63;;;27.10;84.00;;;;;;5075838;28;20093;-67
2023/07/04 12:50:20;;;;;;;7.55;1.95;;;27.30;84.20;;;;;;5069076;28;20112;-69
2023/07/04 12:52:48;;;;;;;5.55;1.52;;;27.00;84.10;;;;;;5069516;28;20025;-69